Delta Virtual Airport Information Service

Pensacola International Airport

ICAO: KPNS Country: United States
Latitude: 30.4734 Longitude: -87.1866
Latest Arrival : DAL1494 (1A) (KATL-KPNS) Latest Departure : DAL2163 (1B) (KPNS-KATL)


WX CaptureLIVE
Data provided by noaa.gov | Fetched at 03:44:01

METAR : KPNS 030923Z AUTO 29004KT 2SM -RA BR CLR 16/15 A3012 RMK AO2 P0001 T01560150

TAF : KPNS 030539Z 0306/0406 28006KT P6SM SKC FM030800 30004KT 4SM BR SCT003 SCT250 FM031100 29003KT 1/2SM FG VV003 FM031400 30004KT 5SM BR SCT010 SCT250 FM031500 29005KT P6SM SCT025 SCT250


Runway Data for KPNS
Data provided by openaviationdata.com

Runway ID Mag Var Hdg Length Elevation Surface ILS Freq ILS Id ILS Slope
8 0 78° 5994 ft 121 ft Asphalt -- -- --
17 0 167° 7019 ft 121 ft Asphalt 111.1 IPNS 3
26 0 258° 5994 ft 121 ft Asphalt -- -- --
35 0 347° 7019 ft 121 ft Asphalt -- -- --

Pensacola International Airport, United States
Use only for reference purposes



Not for navigational purposes.